Time;durP1;ratioP1;P1;durP2;ratioP2;P2;SDS_P1;SDS_P2;PMS_P1;PMS_P2;Temp;Humidity;BMP_temperature;BMP_pressure;BME280_temperature;BME280_humidity;BME280_pressure;Samples;Min_cycle;Max_cycle;Signal;HPM_P1;HPM_P2
2023/05/13 00:01:16;;;;;;;0.08;0.08;;;16.50;99.90;;;;;;5136745;27;20273;-71
2023/05/13 00:03:42;;;;;;;0.03;0.03;;;16.50;99.90;;;;;;5136522;27;20098;-73
2023/05/13 00:06:07;;;;;;;0.00;0.00;;;16.40;99.90;;;;;;5118122;27;20098;-73
2023/05/13 00:08:33;;;;;;;7.47;1.00;;;16.50;99.90;;;;;;5128743;27;20019;-75
2023/05/13 00:10:59;;;;;;;0.30;0.30;;;16.60;99.90;;;;;;5129574;27;20387;-73
2023/05/13 00:13:25;;;;;;;5.95;1.40;;;16.70;99.90;;;;;;5136200;27;20110;-74
2023/05/13 00:15:51;;;;;;;0.00;0.00;;;16.50;99.90;;;;;;5136398;27;20113;-74
2023/05/13 00:18:17;;;;;;;0.10;0.10;;;16.40;99.90;;;;;;5136318;27;20482;-71
2023/05/13 00:20:43;;;;;;;0.22;0.22;;;16.50;99.90;;;;;;5117826;27;20042;-72
2023/05/13 00:23:08;;;;;;;0.43;0.43;;;16.60;99.90;;;;;;5136236;27;20058;-73
2023/05/13 00:25:34;;;;;;;0.10;0.10;;;16.60;99.90;;;;;;5136014;27;20047;-72
2023/05/13 00:28:00;;;;;;;0.17;0.15;;;16.70;99.90;;;;;;5136321;27;20474;-73
2023/05/13 00:30:26;;;;;;;0.45;0.45;;;16.80;99.90;;;;;;5117539;27;20115;-73
2023/05/13 00:32:51;;;;;;;0.00;0.00;;;16.80;99.90;;;;;;5136250;27;20360;-73
2023/05/13 00:35:17;;;;;;;7.68;1.02;;;16.70;99.90;;;;;;5135910;27;20353;-73
2023/05/13 00:37:43;;;;;;;0.00;0.00;;;16.40;99.90;;;;;;5136005;27;20483;-73
2023/05/13 00:40:21;;;;;;;0.20;0.20;;;16.50;99.90;;;;;;5116996;27;20030;-74
2023/05/13 00:42:47;;;;;;;0.00;0.00;;;16.60;99.90;;;;;;5117422;27;20483;-73
2023/05/13 00:45:12;;;;;;;0.10;0.10;;;16.60;99.90;;;;;;5117251;27;20025;-72
2023/05/13 00:47:39;;;;;;;0.00;0.00;;;16.60;99.90;;;;;;5117511;27;20061;-70
2023/05/13 00:50:07;;;;;;;0.40;0.40;;;16.50;99.90;;;;;;5135695;27;20073;-74
2023/05/13 00:52:33;;;;;;;0.00;0.00;;;16.40;99.90;;;;;;5135651;27;20023;-73
2023/05/13 00:54:59;;;;;;;0.00;0.00;;;16.40;99.90;;;;;;5135434;27;20028;-73
2023/05/13 00:57:25;;;;;;;0.00;0.00;;;16.40;99.90;;;;;;5102640;27;20030;-75
2023/05/13 00:59:51;;;;;;;0.00;0.00;;;16.40;99.90;;;;;;5117468;27;20023;-69
2023/05/13 01:02:29;;;;;;;1.42;1.33;;;16.30;99.90;;;;;;5135641;27;20479;-69
2023/05/13 01:05:19;;;;;;;0.00;0.00;;;16.40;99.90;;;;;;5135608;27;20482;-68
2023/05/13 01:08:00;;;;;;;0.10;0.10;;;16.50;99.90;;;;;;5134485;27;20051;-68
2023/05/13 01:10:40;;;;;;;0.00;0.00;;;16.40;99.90;;;;;;5105341;27;20495;-70
2023/05/13 01:13:12;;;;;;;0.20;0.20;;;16.50;99.90;;;;;;5134923;27;20049;-69
2023/05/13 01:16:00;;;;;;;0.00;0.00;;;16.40;99.90;;;;;;5135204;27;20383;-69
2023/05/13 01:18:36;;;;;;;0.00;0.00;;;16.30;99.90;;;;;;5089146;27;20098;-68
2023/05/13 01:21:05;;;;;;;0.00;0.00;;;16.10;99.90;;;;;;5135156;27;20030;-69
2023/05/13 01:23:31;;;;;;;0.57;0.28;;;16.10;99.90;;;;;;5116225;27;20019;-69
2023/05/13 01:25:57;;;;;;;0.70;0.65;;;16.00;99.90;;;;;;5135048;27;20114;-71
2023/05/13 01:28:23;;;;;;;0.00;0.00;;;16.10;99.90;;;;;;5116389;27;20027;-69
2023/05/13 01:30:52;;;;;;;1.08;0.57;;;16.10;99.90;;;;;;5116514;27;20391;-69
2023/05/13 01:33:19;;;;;;;0.75;0.47;;;16.20;99.90;;;;;;5134763;27;20015;-69
2023/05/13 01:35:46;;;;;;;0.20;0.20;;;16.20;99.90;;;;;;5116420;27;20027;-69
2023/05/13 01:38:14;;;;;;;0.00;0.00;;;16.20;99.90;;;;;;5093382;28;20432;-69
2023/05/13 01:40:46;;;;;;;1.48;0.40;;;16.20;99.90;;;;;;5063411;28;20031;-70
2023/05/13 01:43:12;;;;;;;0.05;0.05;;;16.10;99.90;;;;;;5098975;28;20059;-68
2023/05/13 01:45:38;;;;;;;0.00;0.00;;;16.20;99.90;;;;;;5108348;27;20103;-68
2023/05/13 01:48:05;;;;;;;0.00;0.00;;;16.30;99.90;;;;;;5122900;27;20484;-68
2023/05/13 01:50:40;;;;;;;0.05;0.05;;;16.30;99.90;;;;;;5114708;27;20038;-70
2023/05/13 01:53:06;;;;;;;0.00;0.00;;;16.20;99.90;;;;;;5115682;27;20061;-69
2023/05/13 01:55:32;;;;;;;0.00;0.00;;;16.20;99.90;;;;;;5131946;27;20043;-70
2023/05/13 01:58:00;;;;;;;0.05;0.05;;;16.20;99.90;;;;;;5104411;27;20429;-70
2023/05/13 02:00:26;;;;;;;0.00;0.00;;;16.10;99.90;;;;;;5116024;27;20027;-73
2023/05/13 02:02:52;;;;;;;0.00;0.00;;;16.00;99.90;;;;;;5115702;27;20137;-70
2023/05/13 02:05:17;;;;;;;0.08;0.08;;;15.90;99.90;;;;;;5115946;27;20444;-71
2023/05/13 02:07:43;;;;;;;0.88;0.88;;;15.90;99.90;;;;;;5115548;27;20114;-70
2023/05/13 02:10:09;;;;;;;0.63;0.63;;;15.90;99.90;;;;;;5115936;27;20058;-69
2023/05/13 02:12:35;;;;;;;0.00;0.00;;;15.90;99.90;;;;;;5112907;27;20022;-68
2023/05/13 02:15:03;;;;;;;0.70;0.52;;;16.00;99.90;;;;;;5103831;27;20542;-72
2023/05/13 02:17:29;;;;;;;1.20;1.10;;;16.00;99.90;;;;;;5115474;27;20072;-73
2023/05/13 02:19:55;;;;;;;0.20;0.20;;;16.10;99.90;;;;;;5115911;27;20019;-74
2023/05/13 02:22:21;;;;;;;0.00;0.00;;;16.20;99.90;;;;;;5115140;27;20035;-74
2023/05/13 02:24:47;;;;;;;0.00;0.00;;;16.30;99.90;;;;;;5115776;27;20042;-71
2023/05/13 02:27:15;;;;;;;1.25;0.38;;;16.20;99.90;;;;;;5133811;27;20037;-74
2023/05/13 02:29:41;;;;;;;0.20;0.20;;;16.20;99.90;;;;;;5134038;27;20015;-73
2023/05/13 02:32:07;;;;;;;0.38;0.38;;;16.10;99.90;;;;;;5115525;28;20372;-73
2023/05/13 02:34:33;;;;;;;0.17;0.17;;;16.20;99.90;;;;;;5115622;27;20016;-73
2023/05/13 02:36:59;;;;;;;0.20;0.20;;;16.30;99.90;;;;;;5115249;28;20061;-74
2023/05/13 02:39:25;;;;;;;0.00;0.00;;;16.30;99.90;;;;;;5115439;27;20057;-72
2023/05/13 02:41:54;;;;;;;1.35;0.75;;;16.30;99.90;;;;;;5115103;28;20042;-74
2023/05/13 02:44:20;;;;;;;0.40;0.40;;;16.30;99.90;;;;;;5115246;28;20028;-73
2023/05/13 02:46:46;;;;;;;0.00;0.00;;;16.40;99.90;;;;;;5112616;28;20030;-73
2023/05/13 02:49:12;;;;;;;0.20;0.20;;;16.40;99.90;;;;;;5103769;28;20023;-73
2023/05/13 02:51:38;;;;;;;0.17;0.17;;;16.50;99.90;;;;;;5114980;28;20019;-73
2023/05/13 02:54:05;;;;;;;0.00;0.00;;;16.40;99.90;;;;;;5115298;28;20068;-74
2023/05/13 02:56:30;;;;;;;0.30;0.30;;;16.30;99.90;;;;;;5133723;28;20020;-71
2023/05/13 02:58:57;;;;;;;0.60;0.60;;;16.20;99.90;;;;;;5114964;28;20019;-72
2023/05/13 03:01:25;;;;;;;0.38;0.38;;;15.90;99.90;;;;;;5133587;28;20035;-74
2023/05/13 03:03:51;;;;;;;0.70;0.52;;;15.90;99.90;;;;;;5115104;28;20030;-73
2023/05/13 03:06:16;;;;;;;0.70;0.65;;;15.90;99.90;;;;;;5133363;28;20465;-71
2023/05/13 03:08:42;;;;;;;1.67;1.35;;;15.90;99.90;;;;;;5097915;28;20023;-71
2023/05/13 03:11:08;;;;;;;0.57;0.57;;;15.90;99.90;;;;;;5115264;28;20080;-71
2023/05/13 03:13:34;;;;;;;0.30;0.30;;;15.80;99.90;;;;;;5133472;28;20035;-73
2023/05/13 03:15:59;;;;;;;0.10;0.10;;;15.80;99.90;;;;;;5115136;28;20030;-72
2023/05/13 03:18:27;;;;;;;0.00;0.00;;;15.90;99.90;;;;;;5115121;28;20126;-73
2023/05/13 03:20:53;;;;;;;2.45;0.63;;;15.90;99.90;;;;;;5114767;28;20112;-73
2023/05/13 03:23:19;;;;;;;1.00;0.98;;;15.70;99.90;;;;;;5115603;27;20048;-73
2023/05/13 03:25:47;;;;;;;0.00;0.00;;;15.70;99.90;;;;;;5119046;27;20023;-73
2023/05/13 03:28:13;;;;;;;0.73;0.55;;;15.60;99.90;;;;;;5101970;27;20039;-71
2023/05/13 03:30:42;;;;;;;0.00;0.00;;;15.50;99.90;;;;;;5118960;27;20019;-72
2023/05/13 03:33:13;;;;;;;0.10;0.10;;;15.50;99.90;;;;;;5119087;27;20413;-72
2023/05/13 03:35:39;;;;;;;0.10;0.10;;;15.60;99.90;;;;;;5118570;27;20110;-73
2023/05/13 03:38:05;;;;;;;0.00;0.00;;;15.50;99.90;;;;;;5118739;27;20023;-75
2023/05/13 03:40:34;;;;;;;0.20;0.20;;;15.50;99.90;;;;;;5118726;27;20364;-75
2023/05/13 03:43:00;;;;;;;0.00;0.00;;;15.60;99.90;;;;;;5136769;27;20080;-72
2023/05/13 03:45:27;;;;;;;0.30;0.30;;;15.70;99.90;;;;;;5118793;27;20016;-68
2023/05/13 03:47:56;;;;;;;0.10;0.10;;;15.70;99.90;;;;;;5124440;27;20038;-68
2023/05/13 03:50:23;;;;;;;0.65;0.52;;;15.60;99.90;;;;;;5116396;27;20445;-68
2023/05/13 03:52:51;;;;;;;0.30;0.30;;;15.50;99.90;;;;;;5118570;27;20059;-68
2023/05/13 03:55:18;;;;;;;1.10;0.82;;;15.60;99.90;;;;;;5117950;27;20027;-68
2023/05/13 03:57:47;;;;;;;0.28;0.28;;;15.70;99.90;;;;;;5136895;27;20030;-68
2023/05/13 04:00:15;;;;;;;0.10;0.10;;;15.50;99.90;;;;;;5117421;27;20023;-71
2023/05/13 04:02:41;;;;;;;1.13;0.75;;;15.50;99.90;;;;;;5117872;27;20057;-68
2023/05/13 04:05:08;;;;;;;0.20;0.20;;;15.50;99.90;;;;;;5117750;27;20027;-69
2023/05/13 04:07:34;;;;;;;0.47;0.47;;;15.40;99.90;;;;;;5136197;27;20395;-68
2023/05/13 04:10:00;;;;;;;0.30;0.30;;;15.30;99.90;;;;;;5136498;27;20529;-69
2023/05/13 04:12:25;;;;;;;1.10;0.80;;;15.50;99.90;;;;;;5117827;27;20019;-68
2023/05/13 04:14:51;;;;;;;0.00;0.00;;;15.40;99.90;;;;;;5117919;27;20057;-74
2023/05/13 04:17:17;;;;;;;0.30;0.30;;;15.40;99.90;;;;;;5117791;27;20019;-68
2023/05/13 04:19:43;;;;;;;0.10;0.10;;;15.40;99.90;;;;;;5117521;27;20031;-68
2023/05/13 04:22:08;;;;;;;1.33;1.23;;;15.30;99.90;;;;;;5117776;27;20042;-68
2023/05/13 04:24:34;;;;;;;0.10;0.10;;;15.30;99.90;;;;;;5135958;27;20023;-69
2023/05/13 04:27:00;;;;;;;0.15;0.15;;;15.30;99.90;;;;;;5136444;27;20031;-74
2023/05/13 04:29:26;;;;;;;0.43;0.40;;;15.30;99.90;;;;;;5117355;27;20015;-73
2023/05/13 04:31:52;;;;;;;0.00;0.00;;;15.40;99.90;;;;;;5117834;27;20031;-75
2023/05/13 04:34:18;;;;;;;0.28;0.28;;;15.40;99.90;;;;;;5116918;27;20459;-74
2023/05/13 04:36:47;;;;;;;0.00;0.00;;;15.50;99.90;;;;;;5117334;27;20114;-73
2023/05/13 04:39:13;;;;;;;0.03;0.03;;;15.50;99.90;;;;;;5117445;27;20018;-74
2023/05/13 04:41:39;;;;;;;0.00;0.00;;;15.50;99.90;;;;;;5117207;27;20031;-70
2023/05/13 04:44:05;;;;;;;0.30;0.30;;;15.50;99.90;;;;;;5135955;27;20106;-74
2023/05/13 04:46:32;;;;;;;0.47;0.17;;;15.50;99.90;;;;;;5116363;27;20030;-74
2023/05/13 04:48:57;;;;;;;0.68;0.68;;;15.50;99.90;;;;;;5122151;27;20406;-74
2023/05/13 04:51:24;;;;;;;0.00;0.00;;;15.50;99.90;;;;;;5117205;27;20023;-70
2023/05/13 04:53:50;;;;;;;0.45;0.45;;;15.70;99.90;;;;;;5117532;27;20023;-74
2023/05/13 04:56:17;;;;;;;0.08;0.08;;;15.60;99.90;;;;;;5117156;27;20034;-74
2023/05/13 04:58:43;;;;;;;0.80;0.38;;;15.80;99.90;;;;;;5135529;27;20119;-72
2023/05/13 05:01:10;;;;;;;0.00;0.00;;;15.60;99.90;;;;;;5116782;27;20573;-72
2023/05/13 05:03:36;;;;;;;0.00;0.00;;;15.70;99.90;;;;;;5135463;27;20228;-73
2023/05/13 05:06:03;;;;;;;2.03;1.20;;;15.80;99.90;;;;;;5117139;27;20027;-73
2023/05/13 05:08:29;;;;;;;0.13;0.13;;;15.70;99.90;;;;;;5117068;27;20027;-75
2023/05/13 05:10:56;;;;;;;0.22;0.22;;;15.80;99.90;;;;;;5116907;27;20045;-75
2023/05/13 05:13:22;;;;;;;0.00;0.00;;;15.70;99.90;;;;;;5135435;27;20475;-74
2023/05/13 05:15:48;;;;;;;0.00;0.00;;;15.70;99.90;;;;;;5116582;27;20039;-75
2023/05/13 05:18:14;;;;;;;0.38;0.38;;;15.70;99.90;;;;;;5116940;27;20050;-73
2023/05/13 05:20:43;;;;;;;0.28;0.28;;;15.60;99.90;;;;;;5116598;27;20114;-74
2023/05/13 05:23:14;;;;;;;0.10;0.10;;;15.60;99.90;;;;;;5116762;27;20521;-75
2023/05/13 05:25:40;;;;;;;2.90;2.38;;;15.60;99.90;;;;;;5116532;27;20023;-75
2023/05/13 05:28:08;;;;;;;0.10;0.10;;;15.50;99.90;;;;;;5116825;27;20053;-76
2023/05/13 05:30:38;;;;;;;0.05;0.05;;;15.60;99.90;;;;;;5116416;27;20023;-75
2023/05/13 05:33:06;;;;;;;0.00;0.00;;;15.80;99.90;;;;;;5116344;27;20428;-73
2023/05/13 05:35:37;;;;;;;0.30;0.30;;;15.80;99.90;;;;;;5116651;27;20029;-75
2023/05/13 05:38:05;;;;;;;1.25;0.73;;;15.70;99.90;;;;;;5116319;27;20027;-73
2023/05/13 05:40:32;;;;;;;1.23;1.13;;;15.70;99.90;;;;;;5116187;27;20023;-76
2023/05/13 05:42:59;;;;;;;0.32;0.32;;;15.70;99.90;;;;;;5116061;27;20024;-75
2023/05/13 05:45:24;;;;;;;0.00;0.00;;;15.80;99.90;;;;;;5134178;27;20016;-74
2023/05/13 05:47:52;;;;;;;0.10;0.10;;;15.90;99.90;;;;;;5103972;28;20031;-75
2023/05/13 05:50:18;;;;;;;0.43;0.43;;;16.00;99.90;;;;;;5113976;27;20542;-72
2023/05/13 05:52:44;;;;;;;0.30;0.20;;;15.90;99.90;;;;;;5134492;27;20054;-74
2023/05/13 05:55:12;;;;;;;0.45;0.45;;;15.90;99.90;;;;;;5115936;27;20485;-74
2023/05/13 05:57:38;;;;;;;0.03;0.03;;;16.10;99.90;;;;;;5134366;27;20043;-74
2023/05/13 06:00:04;;;;;;;0.00;0.00;;;16.30;99.90;;;;;;5134860;27;20046;-73
2023/05/13 06:02:30;;;;;;;0.45;0.43;;;16.30;99.90;;;;;;5134308;27;20042;-74
2023/05/13 06:04:56;;;;;;;0.00;0.00;;;16.10;99.90;;;;;;5134378;27;20430;-74
2023/05/13 06:07:22;;;;;;;0.00;0.00;;;16.10;99.90;;;;;;5115694;27;20076;-74
2023/05/13 06:09:48;;;;;;;0.52;0.52;;;16.10;99.90;;;;;;5115902;27;20023;-72
2023/05/13 06:12:14;;;;;;;0.10;0.10;;;16.20;99.90;;;;;;5115761;27;20031;-74
2023/05/13 06:14:40;;;;;;;2.83;2.53;;;16.40;99.90;;;;;;5133976;27;20039;-74
2023/05/13 06:17:05;;;;;;;0.00;0.00;;;16.20;99.90;;;;;;5115690;27;20047;-75
2023/05/13 06:19:31;;;;;;;3.03;0.77;;;16.20;99.90;;;;;;5115654;27;20497;-73
2023/05/13 06:21:57;;;;;;;1.23;1.13;;;16.10;99.90;;;;;;5115418;28;20034;-72
2023/05/13 06:24:23;;;;;;;0.90;0.70;;;16.10;99.90;;;;;;5115722;27;20041;-74
2023/05/13 06:26:48;;;;;;;0.10;0.10;;;16.20;99.90;;;;;;5134092;27;20082;-76
2023/05/13 06:29:14;;;;;;;1.60;1.20;;;16.30;99.90;;;;;;5115095;27;20424;-73
2023/05/13 06:31:40;;;;;;;0.20;0.20;;;16.20;99.90;;;;;;5133710;27;20031;-75
2023/05/13 06:34:06;;;;;;;0.15;0.15;;;16.20;99.90;;;;;;5115441;27;20019;-74
2023/05/13 06:36:32;;;;;;;0.15;0.15;;;16.30;99.90;;;;;;5115600;28;20056;-71
2023/05/13 06:39:00;;;;;;;0.40;0.40;;;16.60;99.90;;;;;;5115693;28;20019;-68
2023/05/13 06:41:26;;;;;;;0.00;0.00;;;16.30;99.90;;;;;;5115075;27;20027;-69
2023/05/13 06:43:55;;;;;;;0.17;0.17;;;16.40;99.90;;;;;;5114972;28;20030;-70
2023/05/13 06:46:26;;;;;;;0.00;0.00;;;16.50;99.90;;;;;;5115803;28;20466;-69
2023/05/13 06:48:54;;;;;;;0.10;0.10;;;16.70;99.90;;;;;;5101089;28;20051;-74
2023/05/13 06:51:20;;;;;;;0.43;0.20;;;16.80;99.90;;;;;;5115382;28;20096;-75
2023/05/13 06:53:46;;;;;;;1.20;1.10;;;16.80;99.90;;;;;;5114994;28;20011;-74
2023/05/13 06:56:12;;;;;;;0.13;0.13;;;16.60;99.90;;;;;;5134142;28;20026;-74
2023/05/13 06:58:37;;;;;;;0.10;0.10;;;16.60;99.90;;;;;;5136404;27;20020;-72
2023/05/13 07:01:03;;;;;;;0.50;0.50;;;16.60;99.90;;;;;;5137984;27;20058;-74
2023/05/13 07:03:29;;;;;;;2.83;1.10;;;16.60;99.90;;;;;;5137994;27;20035;-73
2023/05/13 07:05:55;;;;;;;0.30;0.30;;;16.40;99.90;;;;;;5138499;27;20475;-75
2023/05/13 07:08:21;;;;;;;0.47;0.47;;;16.60;99.90;;;;;;5119933;27;20031;-75
2023/05/13 07:10:46;;;;;;;0.00;0.00;;;16.60;99.90;;;;;;5138524;27;20087;-75
2023/05/13 07:13:12;;;;;;;0.10;0.10;;;16.70;99.90;;;;;;5137685;27;20053;-74
2023/05/13 07:15:38;;;;;;;0.80;0.73;;;16.80;99.90;;;;;;5138179;27;20379;-68
2023/05/13 07:18:04;;;;;;;0.00;0.00;;;16.90;99.90;;;;;;5137825;27;20097;-69
2023/05/13 07:20:30;;;;;;;0.38;0.38;;;17.00;99.90;;;;;;5137447;27;20043;-69
2023/05/13 07:22:56;;;;;;;0.30;0.30;;;16.90;99.90;;;;;;5137371;27;20123;-69
2023/05/13 07:25:21;;;;;;;1.45;1.35;;;16.90;99.90;;;;;;5137366;27;20019;-69
2023/05/13 07:27:47;;;;;;;2.40;0.95;;;16.90;99.90;;;;;;5137113;27;20026;-68
2023/05/13 07:30:13;;;;;;;0.52;0.52;;;17.20;99.90;;;;;;5137227;27;20511;-70
2023/05/13 07:32:40;;;;;;;0.00;0.00;;;17.20;99.90;;;;;;5137209;27;20035;-69
2023/05/13 07:35:06;;;;;;;0.55;0.55;;;17.20;99.90;;;;;;5137206;27;20098;-70
2023/05/13 07:37:32;;;;;;;0.10;0.10;;;17.20;99.90;;;;;;5137156;27;20085;-69
2023/05/13 07:39:58;;;;;;;0.10;0.10;;;17.20;99.90;;;;;;5137077;27;20027;-69
2023/05/13 07:42:24;;;;;;;0.10;0.10;;;17.20;99.90;;;;;;5136823;27;20035;-70
2023/05/13 07:44:51;;;;;;;0.10;0.10;;;17.10;99.90;;;;;;5136731;27;20015;-69
2023/05/13 07:47:17;;;;;;;0.82;0.35;;;17.30;99.90;;;;;;5130071;27;20475;-69
2023/05/13 07:49:43;;;;;;;1.67;1.58;;;17.50;99.90;;;;;;5129731;27;20061;-69
2023/05/13 07:52:09;;;;;;;2.63;1.48;;;17.50;99.90;;;;;;5136942;27;20416;-69
2023/05/13 07:54:34;;;;;;;1.77;1.67;;;17.00;99.90;;;;;;5136795;27;20088;-68
2023/05/13 07:57:00;;;;;;;0.17;0.17;;;17.10;99.90;;;;;;5136351;27;20041;-68
2023/05/13 07:59:26;;;;;;;1.10;1.02;;;17.40;99.90;;;;;;5136605;27;20015;-69
2023/05/13 08:01:52;;;;;;;0.10;0.10;;;17.80;99.90;;;;;;5136614;27;20039;-68
2023/05/13 08:04:17;;;;;;;0.32;0.32;;;17.90;99.90;;;;;;5136760;27;20019;-69
2023/05/13 08:06:43;;;;;;;0.10;0.10;;;18.50;99.90;;;;;;5136835;27;20058;-69
2023/05/13 08:09:11;;;;;;;2.22;1.35;;;18.70;99.90;;;;;;5135670;27;20048;-70
2023/05/13 08:11:37;;;;;;;1.10;0.82;;;18.50;99.90;;;;;;5136450;27;20043;-69
2023/05/13 08:14:04;;;;;;;0.25;0.25;;;18.40;99.90;;;;;;5136561;27;20023;-71
2023/05/13 08:16:30;;;;;;;0.20;0.20;;;18.50;99.90;;;;;;5136564;27;20031;-70
2023/05/13 08:18:56;;;;;;;0.73;0.68;;;18.80;99.90;;;;;;5136454;27;20019;-69
2023/05/13 08:21:22;;;;;;;0.00;0.00;;;18.80;99.90;;;;;;5117810;27;20031;-70
2023/05/13 08:23:50;;;;;;;0.65;0.65;;;18.90;99.90;;;;;;5118014;27;20028;-70
2023/05/13 08:26:16;;;;;;;1.63;1.52;;;19.00;99.90;;;;;;5135815;27;20023;-70
2023/05/13 08:28:42;;;;;;;1.55;1.30;;;19.00;99.90;;;;;;5117930;27;20024;-69
2023/05/13 08:31:13;;;;;;;5.72;2.10;;;18.80;99.90;;;;;;5135786;27;20020;-69
2023/05/13 08:33:44;;;;;;;1.63;0.28;;;18.60;99.90;;;;;;5136234;27;20030;-69
2023/05/13 08:36:10;;;;;;;0.00;0.00;;;18.90;99.90;;;;;;5135761;27;20064;-68
2023/05/13 08:38:36;;;;;;;0.25;0.25;;;19.30;99.90;;;;;;5135897;27;20023;-68
2023/05/13 08:41:05;;;;;;;1.65;1.55;;;19.60;99.90;;;;;;5135502;27;20117;-69
2023/05/13 08:43:32;;;;;;;0.00;0.00;;;19.60;99.90;;;;;;5135821;27;20041;-69
2023/05/13 08:46:02;;;;;;;0.00;0.00;;;19.70;99.90;;;;;;5117466;27;20015;-68
2023/05/13 08:48:29;;;;;;;0.00;0.00;;;19.90;99.90;;;;;;5121661;27;20368;-69
2023/05/13 08:50:56;;;;;;;0.00;0.00;;;19.60;99.90;;;;;;5135641;27;20057;-69
2023/05/13 08:53:25;;;;;;;0.30;0.30;;;20.00;99.90;;;;;;5135348;27;20111;-69
2023/05/13 08:55:51;;;;;;;0.32;0.32;;;20.00;99.90;;;;;;5117326;27;20015;-69
2023/05/13 08:58:17;;;;;;;0.30;0.30;;;20.20;99.90;;;;;;5117323;27;20566;-69
2023/05/13 09:00:43;;;;;;;2.75;0.47;;;20.00;99.90;;;;;;5135583;27;20106;-69
2023/05/13 09:03:09;;;;;;;0.30;0.30;;;19.80;99.90;;;;;;5135467;27;20043;-69
2023/05/13 09:05:35;;;;;;;3.03;0.45;;;19.80;99.90;;;;;;5135364;27;20031;-69
2023/05/13 09:08:08;;;;;;;6.80;1.85;;;19.90;99.90;;;;;;5135298;27;20019;-69
2023/05/13 09:10:34;;;;;;;0.10;0.10;;;20.10;99.90;;;;;;5135117;27;20076;-70
2023/05/13 09:13:00;;;;;;;1.13;0.98;;;20.30;99.90;;;;;;5135427;27;20061;-69
2023/05/13 09:15:27;;;;;;;1.83;1.73;;;20.70;99.90;;;;;;5135172;27;20044;-70
2023/05/13 09:18:06;;;;;;;6.60;2.53;;;20.60;99.90;;;;;;5135273;27;20019;-72
2023/05/13 09:20:33;;;;;;;0.77;0.70;;;20.20;99.90;;;;;;5134233;27;20034;-74
2023/05/13 09:23:04;;;;;;;3.85;1.65;;;20.60;99.90;;;;;;5115901;27;20030;-73
2023/05/13 09:25:31;;;;;;;0.30;0.30;;;20.80;99.90;;;;;;5135216;27;20076;-73
2023/05/13 09:27:59;;;;;;;0.63;0.52;;;20.70;99.90;;;;;;5116342;27;20406;-71
2023/05/13 09:30:28;;;;;;;0.73;0.73;;;20.70;99.90;;;;;;5135173;27;20035;-74
2023/05/13 09:33:10;;;;;;;1.67;0.95;;;20.90;99.90;;;;;;5134715;27;20011;-72
2023/05/13 09:35:53;;;;;;;2.13;1.88;;;21.00;99.90;;;;;;5134944;27;20387;-72
2023/05/13 09:38:21;;;;;;;0.17;0.17;;;20.90;99.90;;;;;;5107585;27;20027;-72
2023/05/13 09:40:57;;;;;;;0.45;0.45;;;21.00;99.90;;;;;;5134944;27;20068;-74
2023/05/13 09:43:25;;;;;;;0.10;0.10;;;21.10;99.90;;;;;;5107118;27;20047;-71
2023/05/13 09:45:56;;;;;;;1.52;0.80;;;21.00;99.90;;;;;;5134804;27;20051;-71
2023/05/13 09:48:25;;;;;;;1.67;1.55;;;21.30;99.90;;;;;;5120143;27;20084;-73
2023/05/13 09:50:51;;;;;;;0.20;0.20;;;21.30;99.90;;;;;;5134463;27;20475;-72
2023/05/13 09:53:19;;;;;;;1.05;0.60;;;21.60;99.90;;;;;;5133925;27;20079;-73
2023/05/13 09:55:46;;;;;;;0.00;0.00;;;21.80;99.90;;;;;;5134519;27;20023;-72
2023/05/13 09:58:12;;;;;;;3.15;2.92;;;22.20;99.90;;;;;;5134413;27;20041;-72
2023/05/13 10:00:42;;;;;;;1.10;1.05;;;22.50;99.90;;;;;;5134676;27;20023;-69
2023/05/13 10:03:10;;;;;;;3.20;2.33;;;22.20;99.90;;;;;;5134064;27;20121;-69
2023/05/13 10:05:38;;;;;;;0.75;0.70;;;22.10;99.90;;;;;;5133850;27;20455;-69
2023/05/13 10:08:04;;;;;;;0.00;0.00;;;21.80;99.90;;;;;;5133991;27;20038;-71
2023/05/13 10:10:33;;;;;;;2.42;1.23;;;21.60;99.90;;;;;;5133964;27;20023;-69
2023/05/13 10:13:02;;;;;;;0.88;0.80;;;22.10;99.90;;;;;;5115660;27;20039;-70
2023/05/13 10:15:29;;;;;;;2.20;1.67;;;22.30;99.90;;;;;;5134010;27;20080;-69
2023/05/13 10:17:56;;;;;;;1.30;0.88;;;22.20;99.90;;;;;;5134038;27;20023;-69
2023/05/13 10:20:25;;;;;;;9.95;1.48;;;22.50;99.90;;;;;;5133757;27;20059;-69
2023/05/13 10:22:51;;;;;;;1.17;1.08;;;22.50;99.90;;;;;;5133696;27;20031;-70
2023/05/13 10:25:18;;;;;;;0.20;0.20;;;22.50;99.90;;;;;;5134125;27;20118;-70
2023/05/13 10:27:44;;;;;;;1.77;1.67;;;22.80;99.90;;;;;;5133811;27;20027;-69
2023/05/13 10:30:10;;;;;;;0.00;0.00;;;22.50;99.90;;;;;;5133789;27;20479;-68
2023/05/13 10:32:38;;;;;;;0.88;0.65;;;22.40;99.90;;;;;;5133441;27;20487;-69
2023/05/13 10:35:10;;;;;;;0.50;0.50;;;22.60;99.90;;;;;;5133600;27;20110;-69
2023/05/13 10:37:55;;;;;;;0.63;0.40;;;23.10;99.90;;;;;;5133698;27;20035;-70
2023/05/13 10:40:26;;;;;;;5.28;3.92;;;23.90;99.90;;;;;;5133606;27;20035;-69
2023/05/13 10:43:21;;;;;;;3.70;1.83;;;23.40;98.50;;;;;;5133644;27;20073;-69
2023/05/13 10:46:00;;;;;;;3.10;2.30;;;23.00;99.10;;;;;;5133952;27;20402;-69
2023/05/13 10:48:45;;;;;;;6.65;1.73;;;23.40;99.10;;;;;;5119153;28;20464;-74
2023/05/13 10:51:16;;;;;;;1.35;1.05;;;23.60;98.30;;;;;;5133458;28;20019;-70
2023/05/13 10:53:50;;;;;;;0.40;0.40;;;23.60;98.00;;;;;;5133572;28;20049;-70
2023/05/13 10:56:20;;;;;;;0.82;0.80;;;23.80;99.20;;;;;;5133681;28;20028;-71
2023/05/13 10:59:01;;;;;;;1.45;1.13;;;24.20;99.00;;;;;;5115237;28;20023;-73
2023/05/13 11:01:33;;;;;;;1.17;1.08;;;24.60;98.80;;;;;;5133619;28;20042;-72
2023/05/13 11:04:00;;;;;;;1.88;1.75;;;24.60;98.80;;;;;;5133078;28;20046;-70
2023/05/13 11:06:38;;;;;;;0.43;0.35;;;24.10;98.30;;;;;;5133547;28;20041;-69
2023/05/13 11:09:25;;;;;;;0.75;0.75;;;24.10;98.10;;;;;;5133297;28;20482;-70
2023/05/13 11:11:55;;;;;;;0.85;0.85;;;24.50;98.20;;;;;;5133389;28;20031;-70
2023/05/13 11:14:26;;;;;;;4.30;3.08;;;24.60;98.20;;;;;;5133467;28;20035;-69
2023/05/13 11:17:08;;;;;;;0.47;0.30;;;24.90;97.90;;;;;;5133579;28;20082;-70
2023/05/13 11:19:36;;;;;;;2.60;2.10;;;24.50;98.50;;;;;;5133118;28;20486;-75
2023/05/13 11:22:28;;;;;;;9.20;2.50;;;24.40;98.60;;;;;;5114844;28;20065;-69
2023/05/13 11:25:08;;;;;;;6.47;1.83;;;24.50;97.50;;;;;;5129797;28;20034;-74
2023/05/13 11:27:39;;;;;;;0.85;0.80;;;24.00;98.30;;;;;;5133353;28;20024;-69
2023/05/13 11:30:06;;;;;;;0.22;0.20;;;24.60;98.30;;;;;;5133515;28;20034;-69
2023/05/13 11:32:54;;;;;;;5.93;1.77;;;24.40;98.60;;;;;;5132827;28;20490;-70
2023/05/13 11:35:31;;;;;;;0.63;0.63;;;24.30;97.60;;;;;;5133169;28;20161;-69
2023/05/13 11:38:00;;;;;;;5.43;2.97;;;24.60;98.10;;;;;;5133332;28;20027;-69
2023/05/13 11:40:29;;;;;;;4.13;1.80;;;24.40;98.00;;;;;;5132820;28;20035;-69
2023/05/13 11:42:56;;;;;;;1.63;1.15;;;24.40;98.00;;;;;;5133235;28;20686;-70
2023/05/13 11:45:24;;;;;;;3.33;1.83;;;24.40;98.00;;;;;;5135521;27;20041;-70
2023/05/13 11:47:51;;;;;;;2.97;2.70;;;25.00;98.20;;;;;;5125239;27;20020;-70
2023/05/13 11:50:21;;;;;;;6.72;1.60;;;24.90;99.00;;;;;;5134164;27;20118;-69
2023/05/13 11:52:55;;;;;;;4.50;2.43;;;24.90;98.80;;;;;;5136888;27;20031;-69
2023/05/13 11:55:28;;;;;;;17.83;1.20;;;24.20;99.20;;;;;;5136608;27;20015;-69
2023/05/13 11:57:54;;;;;;;5.70;2.67;;;24.00;99.90;;;;;;5136873;27;20038;-69
2023/05/13 12:00:30;;;;;;;3.33;2.03;;;24.00;99.90;;;;;;5136426;27;20371;-69
2023/05/13 12:02:57;;;;;;;0.50;0.45;;;24.30;99.90;;;;;;5136605;27;20059;-70
2023/05/13 12:05:24;;;;;;;1.50;1.25;;;24.30;99.90;;;;;;5136560;27;20103;-69
2023/05/13 12:07:49;;;;;;;1.23;0.90;;;24.50;99.90;;;;;;5136785;27;20348;-68
2023/05/13 12:10:15;;;;;;;5.93;3.63;;;24.50;99.90;;;;;;5136229;27;20110;-69
2023/05/13 12:12:45;;;;;;;0.13;0.13;;;24.30;99.60;;;;;;5136379;27;20035;-69
2023/05/13 12:15:19;;;;;;;1.60;1.50;;;24.90;99.90;;;;;;5136443;27;20030;-69
2023/05/13 12:17:46;;;;;;;0.70;0.63;;;25.00;99.90;;;;;;5136277;27;20015;-71
2023/05/13 12:20:17;;;;;;;3.35;1.65;;;25.40;99.90;;;;;;5136434;27;20023;-69
2023/05/13 12:22:43;;;;;;;3.63;2.22;;;25.30;99.60;;;;;;5117839;27;20122;-69
2023/05/13 12:25:33;;;;;;;2.72;2.08;;;24.20;99.90;;;;;;5136080;27;20107;-73
2023/05/13 12:28:25;;;;;;;2.07;1.30;;;24.10;99.90;;;;;;5136194;27;20100;-73
2023/05/13 12:30:57;;;;;;;;;;;24.70;99.90;;;;;;5135827;27;20668;-71
2023/05/13 12:33:28;;;;;;;3.55;1.70;;;23.80;99.90;;;;;;5136158;27;19907;-73
2023/05/13 12:36:24;;;;;;;0.20;0.20;;;23.40;99.90;;;;;;5135871;27;20023;-74
2023/05/13 12:38:54;;;;;;;10.77;1.85;;;23.40;99.90;;;;;;5136094;27;20098;-73
2023/05/13 12:41:24;;;;;;;4.95;3.30;;;23.20;99.90;;;;;;5135364;27;20019;-73
2023/05/13 12:44:13;;;;;;;19.98;3.83;;;23.20;99.90;;;;;;5135992;27;20035;-72
2023/05/13 12:46:50;;;;;;;4.85;3.05;;;23.10;99.90;;;;;;5133783;27;20411;-73
2023/05/13 12:49:16;;;;;;;1.17;0.68;;;22.50;99.90;;;;;;5106215;27;20058;-75
2023/05/13 12:51:41;;;;;;;10.63;4.53;;;22.10;99.90;;;;;;5135467;27;20084;-72
2023/05/13 12:54:07;;;;;;;4.30;3.08;;;21.80;99.90;;;;;;5135881;27;20073;-72